createdAt,value
2018-03-27T00:00:05.740Z,100989
2018-03-27T00:01:48.917Z,100985
2018-03-27T00:03:32.831Z,100985
2018-03-27T00:05:16.152Z,100985
2018-03-27T00:06:59.241Z,100991
2018-03-27T00:08:42.376Z,100997
2018-03-27T00:10:25.628Z,100988
2018-03-27T00:12:08.750Z,100991
2018-03-27T00:13:52.654Z,100996
2018-03-27T00:15:35.800Z,100990
2018-03-27T00:17:19.695Z,100995
2018-03-27T00:19:02.956Z,101000
2018-03-27T00:20:46.980Z,100993
2018-03-27T00:22:31.058Z,100995
2018-03-27T00:24:14.159Z,101000
2018-03-27T00:25:58.155Z,100994
2018-03-27T00:27:59.297Z,100995
2018-03-27T00:30:00.207Z,100988
2018-03-27T00:32:01.420Z,101000
2018-03-27T00:34:02.526Z,101001
2018-03-27T00:36:04.588Z,100999
2018-03-27T00:38:05.672Z,100997
2018-03-27T00:40:06.864Z,101002
2018-03-27T00:44:35.396Z,101007
2018-03-27T00:46:18.497Z,101007
2018-03-27T00:48:01.617Z,101011
2018-03-27T00:49:44.781Z,101008
2018-03-27T00:51:28.002Z,101007
2018-03-27T00:53:11.117Z,101005
2018-03-27T00:54:54.332Z,101007
2018-03-27T00:56:37.553Z,101010
2018-03-27T00:58:20.747Z,101004
2018-03-27T01:00:03.875Z,101002
2018-03-27T01:01:47.009Z,101005
2018-03-27T01:03:30.137Z,101004
2018-03-27T01:05:13.330Z,101005
2018-03-27T01:06:56.450Z,101003
2018-03-27T01:08:39.559Z,101008
2018-03-27T01:10:22.698Z,101000
2018-03-27T01:12:05.876Z,101010
2018-03-27T01:13:49.035Z,101010
2018-03-27T01:15:32.158Z,101016
2018-03-27T01:17:16.316Z,101008
2018-03-27T01:19:00.206Z,101016
2018-03-27T01:20:43.489Z,101000
2018-03-27T01:22:26.649Z,101009
2018-03-27T01:24:09.854Z,101007
2018-03-27T01:25:52.984Z,101005
2018-03-27T01:27:36.195Z,100996
2018-03-27T01:29:19.324Z,101000
2018-03-27T01:31:02.429Z,100998
2018-03-27T01:32:45.565Z,101006
2018-03-27T01:34:28.666Z,101006
2018-03-27T01:36:11.908Z,101003
2018-03-27T01:37:55.843Z,100997
2018-03-27T01:39:39.135Z,101005
2018-03-27T01:41:22.257Z,101001
2018-03-27T01:43:05.483Z,100999
2018-03-27T01:44:48.692Z,101001
2018-03-27T01:46:31.840Z,101001
2018-03-27T01:48:15.798Z,101008
2018-03-27T01:49:58.947Z,100995
2018-03-27T01:51:42.212Z,100998
2018-03-27T01:53:26.225Z,100998
2018-03-27T01:55:09.337Z,101001
2018-03-27T01:56:52.537Z,101006
2018-03-27T01:58:35.682Z,101002
2018-03-27T02:00:18.849Z,101003
2018-03-27T02:02:03.046Z,101004
2018-03-27T02:03:46.178Z,101000
2018-03-27T02:05:30.073Z,101010
2018-03-27T02:07:13.182Z,101014
2018-03-27T02:08:56.303Z,101017
2018-03-27T02:10:38.865Z,101013
2018-03-27T02:12:27.793Z,101009
2018-03-27T02:14:17.284Z,101011
2018-03-27T02:16:05.897Z,101003
2018-03-27T02:17:54.555Z,101001
2018-03-27T02:19:43.985Z,101005
2018-03-27T02:21:26.507Z,100998
2018-03-27T02:23:13.432Z,100995
2018-03-27T02:24:57.361Z,101002
2018-03-27T02:26:41.273Z,100998
2018-03-27T02:28:24.386Z,100990
2018-03-27T02:30:07.508Z,100997
2018-03-27T02:31:50.646Z,100996
2018-03-27T02:33:34.540Z,100995
2018-03-27T02:35:17.656Z,100998
2018-03-27T02:37:00.778Z,100991
2018-03-27T02:38:43.892Z,101001
2018-03-27T02:40:27.010Z,100996
2018-03-27T02:42:10.129Z,101002
2018-03-27T02:43:53.244Z,101001
2018-03-27T02:45:36.483Z,100994
2018-03-27T02:47:19.607Z,100992
2018-03-27T02:49:03.520Z,100999
2018-03-27T02:50:46.642Z,101003
2018-03-27T02:52:29.758Z,101007
2018-03-27T02:54:14.127Z,101005
2018-03-27T02:55:58.365Z,101018
2018-03-27T02:57:41.511Z,101014
2018-03-27T02:59:24.682Z,101011
2018-03-27T03:01:07.844Z,101006
2018-03-27T03:02:51.133Z,101012
2018-03-27T03:04:34.250Z,101011
2018-03-27T03:06:18.149Z,101011
2018-03-27T03:08:01.264Z,101016
2018-03-27T03:09:44.416Z,101013
2018-03-27T03:11:27.549Z,101012
2018-03-27T03:13:11.428Z,101015
2018-03-27T03:14:54.533Z,101013
2018-03-27T03:16:37.680Z,101009
2018-03-27T03:18:20.801Z,101014
2018-03-27T03:20:03.999Z,101017
2018-03-27T03:21:47.254Z,101007
2018-03-27T03:23:31.124Z,101007
2018-03-27T03:25:14.248Z,101013
2018-03-27T03:26:57.359Z,101004
2018-03-27T03:28:40.475Z,101012
2018-03-27T03:30:23.621Z,101005
2018-03-27T03:32:06.793Z,101005
2018-03-27T03:33:50.663Z,101005
2018-03-27T03:35:33.792Z,101009
2018-03-27T03:37:16.921Z,101001
2018-03-27T03:39:00.041Z,101005
2018-03-27T03:40:43.182Z,101006
2018-03-27T03:42:27.083Z,101005
2018-03-27T03:44:10.403Z,101004
2018-03-27T03:45:53.526Z,101006
2018-03-27T03:47:36.792Z,101004
2018-03-27T03:49:19.969Z,101004
2018-03-27T03:51:03.862Z,101001
2018-03-27T03:52:47.937Z,101008
2018-03-27T03:54:31.048Z,101006
2018-03-27T03:56:14.153Z,101008
2018-03-27T03:57:57.391Z,101000
2018-03-27T03:59:40.510Z,101008
2018-03-27T04:01:23.637Z,100993
2018-03-27T04:03:07.527Z,101000
2018-03-27T04:04:50.668Z,100997
2018-03-27T04:06:33.776Z,101006
2018-03-27T04:08:16.996Z,100999
2018-03-27T04:10:00.149Z,100994
2018-03-27T04:11:44.047Z,100993
2018-03-27T04:13:27.160Z,100993
2018-03-27T04:15:10.261Z,100997
2018-03-27T04:16:53.728Z,101001
2018-03-27T04:18:36.837Z,100963
2018-03-27T04:20:19.968Z,101012
2018-03-27T04:22:03.871Z,101000
2018-03-27T04:23:47.006Z,100996
2018-03-27T04:25:30.106Z,100994
2018-03-27T04:27:13.233Z,101001
2018-03-27T04:28:56.475Z,100995
2018-03-27T04:30:40.370Z,100991
2018-03-27T04:32:23.515Z,100987
2018-03-27T04:34:06.633Z,100990
2018-03-27T04:35:49.915Z,100997
2018-03-27T04:37:33.036Z,101000
2018-03-27T04:39:16.158Z,100992
2018-03-27T04:40:59.297Z,100998
2018-03-27T04:42:44.002Z,101005
2018-03-27T04:44:27.173Z,101005
2018-03-27T04:46:10.392Z,101011
2018-03-27T04:47:53.562Z,101008
2018-03-27T04:49:36.709Z,101018
2018-03-27T04:51:19.920Z,101011
2018-03-27T04:53:03.050Z,101012
2018-03-27T04:54:46.161Z,101009
2018-03-27T04:56:29.397Z,101010
2018-03-27T04:58:12.587Z,101007
2018-03-27T04:59:55.725Z,101013
2018-03-27T05:01:39.656Z,101006
2018-03-27T05:03:23.544Z,101010
2018-03-27T05:05:06.653Z,101004
2018-03-27T05:06:49.772Z,100999
2018-03-27T05:08:32.888Z,101010
2018-03-27T05:10:16.002Z,101002
2018-03-27T05:11:59.116Z,100994
2018-03-27T05:13:42.240Z,101001
2018-03-27T05:15:25.357Z,100996
2018-03-27T05:17:08.603Z,101009
2018-03-27T05:18:51.955Z,100999
2018-03-27T05:20:35.087Z,100993
2018-03-27T05:22:19.009Z,100999
2018-03-27T05:24:02.926Z,100991
2018-03-27T05:25:46.024Z,100996
2018-03-27T05:27:29.223Z,100999
2018-03-27T05:29:12.379Z,100993
2018-03-27T05:30:55.516Z,101002
2018-03-27T05:32:39.434Z,101009
2018-03-27T05:34:22.665Z,101013
2018-03-27T05:36:06.597Z,101014
2018-03-27T05:37:49.819Z,100995
2018-03-27T05:39:33.725Z,100955
2018-03-27T05:41:16.839Z,100943
2018-03-27T05:42:59.983Z,100911
2018-03-27T05:44:43.269Z,100989
2018-03-27T05:46:26.396Z,101026
2018-03-27T05:48:09.517Z,101012
2018-03-27T05:49:52.734Z,101023
2018-03-27T05:51:35.869Z,101027
2018-03-27T05:53:19.064Z,101028
2018-03-27T05:55:02.194Z,101012
2018-03-27T05:56:46.064Z,101025
2018-03-27T05:58:29.946Z,101026
2018-03-27T06:00:13.304Z,101014
2018-03-27T06:01:57.172Z,101017
2018-03-27T06:03:40.270Z,101020
2018-03-27T06:05:24.235Z,101020
2018-03-27T06:07:07.461Z,101024
2018-03-27T06:08:50.582Z,101025
2018-03-27T06:10:33.701Z,101024
2018-03-27T06:12:16.805Z,101015
2018-03-27T06:14:00.251Z,101018
2018-03-27T06:15:43.530Z,101010
2018-03-27T06:17:26.641Z,101017
2018-03-27T06:19:09.764Z,101012
2018-03-27T06:20:52.885Z,100963
2018-03-27T06:22:36.004Z,100943
2018-03-27T06:24:19.138Z,101002
2018-03-27T06:26:02.272Z,100898
2018-03-27T06:27:45.408Z,100904
2018-03-27T06:29:29.302Z,100902
2018-03-27T06:31:12.460Z,100963
2018-03-27T06:32:55.636Z,100920
2018-03-27T06:34:38.864Z,100968
2018-03-27T06:36:21.985Z,100968
2018-03-27T06:38:05.117Z,100923
2018-03-27T06:39:48.250Z,100967
2018-03-27T06:41:32.148Z,100916
2018-03-27T06:43:15.256Z,100904
2018-03-27T06:44:58.396Z,100906
2018-03-27T06:46:41.589Z,100914
2018-03-27T06:48:24.703Z,100912
2018-03-27T06:50:07.828Z,100892
2018-03-27T06:51:50.937Z,100889
2018-03-27T06:53:34.056Z,100919
2018-03-27T06:55:17.185Z,100940
2018-03-27T06:57:00.415Z,100952
2018-03-27T06:58:43.653Z,100927
2018-03-27T07:00:26.846Z,100931
2018-03-27T07:02:09.952Z,100937
2018-03-27T07:03:53.055Z,100935
2018-03-27T07:05:36.255Z,100941
2018-03-27T07:07:19.339Z,100933
2018-03-27T07:09:02.537Z,100929
2018-03-27T07:10:45.713Z,100935
2018-03-27T07:12:28.838Z,100932
2018-03-27T07:14:11.967Z,100935
2018-03-27T07:15:55.138Z,100931
2018-03-27T07:17:39.060Z,100927
2018-03-27T07:19:22.163Z,100924
2018-03-27T07:21:05.300Z,100908
2018-03-27T07:22:49.216Z,100928
2018-03-27T07:24:32.441Z,101013
2018-03-27T07:26:15.597Z,101030
2018-03-27T07:27:58.719Z,101044
2018-03-27T07:29:41.842Z,101033
2018-03-27T07:31:25.192Z,101058
2018-03-27T07:33:08.430Z,101044
2018-03-27T07:34:51.632Z,101037
2018-03-27T07:36:34.844Z,100937
2018-03-27T07:38:18.044Z,100961
2018-03-27T07:40:01.165Z,101026
2018-03-27T07:41:44.305Z,101026
2018-03-27T07:43:27.546Z,101024
2018-03-27T07:45:11.448Z,101023
2018-03-27T07:46:54.613Z,101013
2018-03-27T07:48:38.496Z,101006
2018-03-27T07:50:21.621Z,101016
2018-03-27T07:52:04.848Z,101014
2018-03-27T07:53:48.058Z,101008
2018-03-27T07:55:31.284Z,100971
2018-03-27T07:57:14.412Z,100974
2018-03-27T07:58:57.536Z,100975
2018-03-27T08:00:40.663Z,100982
2018-03-27T08:02:24.563Z,100985
2018-03-27T08:04:07.855Z,101003
2018-03-27T08:05:51.720Z,101054
2018-03-27T08:07:35.629Z,101049
2018-03-27T08:09:18.784Z,101030
2018-03-27T08:11:02.274Z,101018
2018-03-27T08:12:46.138Z,101021
2018-03-27T08:14:29.248Z,101027
2018-03-27T08:16:13.020Z,101051
2018-03-27T08:17:56.220Z,101057
2018-03-27T08:19:40.120Z,101062
2018-03-27T08:21:23.371Z,101054
2018-03-27T08:23:06.490Z,100985
2018-03-27T08:24:50.413Z,101057
2018-03-27T08:26:33.582Z,101057
2018-03-27T08:28:16.682Z,101057
2018-03-27T08:29:59.810Z,101056
2018-03-27T08:31:42.990Z,101032
2018-03-27T08:33:26.908Z,101036
2018-03-27T08:35:10.024Z,101001
2018-03-27T08:36:53.233Z,100998
2018-03-27T08:38:36.349Z,101028
2018-03-27T08:40:19.508Z,101038
2018-03-27T08:42:03.557Z,101048
2018-03-27T08:43:46.673Z,101039
2018-03-27T08:45:29.812Z,101042
2018-03-27T08:47:12.980Z,101037
2018-03-27T08:48:56.402Z,101038
2018-03-27T08:50:39.529Z,101030
2018-03-27T08:52:23.443Z,100978
2018-03-27T08:54:06.622Z,100990
2018-03-27T08:55:50.465Z,101004
2018-03-27T08:57:33.608Z,100975
2018-03-27T08:59:16.812Z,100974
2018-03-27T09:01:00.041Z,100973
2018-03-27T09:02:43.178Z,100991
2018-03-27T09:04:27.069Z,100988
2018-03-27T09:06:10.218Z,101028
2018-03-27T09:07:53.350Z,101013
2018-03-27T09:09:36.564Z,101007
2018-03-27T09:11:20.500Z,100982
2018-03-27T09:13:04.398Z,100986
2018-03-27T09:14:47.558Z,100991
2018-03-27T09:16:31.457Z,100989
2018-03-27T09:18:15.293Z,101053
2018-03-27T09:19:58.431Z,101047
2018-03-27T09:21:41.654Z,101050
2018-03-27T09:23:24.841Z,101033
2018-03-27T09:25:07.935Z,100986
2018-03-27T09:26:51.068Z,100976
2018-03-27T09:28:34.377Z,101039
2018-03-27T09:30:18.210Z,101000
2018-03-27T09:32:01.446Z,100992
2018-03-27T09:33:44.599Z,100974
2018-03-27T09:35:27.815Z,100977
2018-03-27T09:37:11.720Z,100975
2018-03-27T09:38:54.841Z,100981
2018-03-27T09:40:38.065Z,101000
2018-03-27T09:42:21.290Z,101046
2018-03-27T09:44:05.236Z,101045
2018-03-27T09:45:48.350Z,101052
2018-03-27T09:47:32.968Z,101032
2018-03-27T09:49:16.118Z,101044
2018-03-27T09:50:59.239Z,101041
2018-03-27T09:52:43.141Z,101038
2018-03-27T09:54:26.374Z,101041
2018-03-27T09:56:09.713Z,101039
2018-03-27T09:57:52.836Z,101046
2018-03-27T09:59:36.732Z,101048
2018-03-27T10:03:30.229Z,101049
2018-03-27T10:05:13.353Z,101054
2018-03-27T10:06:56.547Z,101050
2018-03-27T10:08:39.728Z,101051
2018-03-27T10:10:22.842Z,101047
2018-03-27T10:12:05.989Z,101046
2018-03-27T10:13:49.117Z,101044
2018-03-27T10:15:32.256Z,101044
2018-03-27T10:17:15.457Z,101043
2018-03-27T10:18:58.688Z,101039
2018-03-27T10:20:41.897Z,101043
2018-03-27T10:22:25.106Z,101042
2018-03-27T10:24:08.433Z,101037
2018-03-27T10:25:51.567Z,101036
2018-03-27T10:27:34.784Z,101033
2018-03-27T10:29:18.634Z,101031
2018-03-27T10:31:01.792Z,101028
2018-03-27T10:32:44.969Z,101025
2018-03-27T10:34:28.981Z,101027
2018-03-27T10:36:12.114Z,101020
2018-03-27T10:37:55.302Z,101017
2018-03-27T10:39:38.544Z,101013
2018-03-27T10:41:21.760Z,101013
2018-03-27T10:43:04.915Z,100996
2018-03-27T10:44:48.477Z,101001
2018-03-27T10:46:31.599Z,101011
2018-03-27T10:48:14.731Z,101001
2018-03-27T10:49:57.878Z,100994
2018-03-27T10:51:41.020Z,101001
2018-03-27T10:53:24.140Z,101004
2018-03-27T10:55:07.257Z,101007
2018-03-27T10:56:50.370Z,101007
2018-03-27T10:58:33.626Z,101006
2018-03-27T11:00:16.845Z,101005
2018-03-27T11:02:00.080Z,100979
2018-03-27T11:03:43.985Z,100922
2018-03-27T11:05:27.124Z,100916
2018-03-27T11:07:11.038Z,100920
2018-03-27T11:08:54.273Z,100923
2018-03-27T11:10:37.497Z,100948
2018-03-27T11:12:20.631Z,100958
2018-03-27T11:14:04.534Z,100982
2018-03-27T11:15:47.670Z,100982
2018-03-27T11:17:30.849Z,100988
2018-03-27T11:19:14.024Z,100993
2018-03-27T11:20:57.920Z,100997
2018-03-27T11:22:41.069Z,100990
2018-03-27T11:24:25.004Z,100996
2018-03-27T11:26:08.201Z,100992
2018-03-27T11:27:52.969Z,100990
2018-03-27T11:29:36.107Z,100985
2018-03-27T11:31:19.269Z,100999
2018-03-27T11:33:02.415Z,100995
2018-03-27T11:34:45.576Z,100995
2018-03-27T11:36:28.856Z,100992
2018-03-27T11:38:11.988Z,100991
2018-03-27T11:39:55.886Z,100988
2018-03-27T11:41:39.015Z,100986
2018-03-27T11:43:22.133Z,100996
2018-03-27T11:45:05.272Z,100985
2018-03-27T11:46:49.173Z,100992
2018-03-27T11:48:33.827Z,100979
2018-03-27T11:50:17.056Z,100983
2018-03-27T11:52:00.249Z,100982
2018-03-27T11:53:43.394Z,100984
2018-03-27T11:55:26.517Z,100989
2018-03-27T11:57:09.627Z,100982
2018-03-27T11:58:52.877Z,100979
2018-03-27T12:00:36.002Z,100975
2018-03-27T12:02:19.144Z,100970
2018-03-27T12:04:02.286Z,100971
2018-03-27T12:05:46.933Z,100977
2018-03-27T12:07:30.117Z,100972
2018-03-27T12:09:13.289Z,100965
2018-03-27T12:10:57.168Z,100969
2018-03-27T12:12:40.316Z,100969
2018-03-27T12:14:23.518Z,100964
2018-03-27T12:16:06.653Z,100965
2018-03-27T12:17:49.797Z,100960
2018-03-27T12:19:33.697Z,100951
2018-03-27T12:21:16.810Z,100943
2018-03-27T12:22:59.912Z,100945
2018-03-27T12:24:43.042Z,100950
2018-03-27T12:26:26.161Z,100944
2018-03-27T12:28:09.284Z,100937
2018-03-27T12:29:52.436Z,100933
2018-03-27T12:31:36.356Z,100937
2018-03-27T12:33:19.564Z,100936
2018-03-27T12:35:03.509Z,100934
2018-03-27T12:36:46.648Z,100935
2018-03-27T12:38:30.544Z,100934
2018-03-27T12:40:13.690Z,100933
2018-03-27T12:41:57.577Z,100929
2018-03-27T12:43:40.712Z,100927
2018-03-27T12:45:23.836Z,100924
2018-03-27T12:47:07.055Z,100925
2018-03-27T12:48:50.169Z,100915
2018-03-27T12:50:34.816Z,100918
2018-03-27T12:52:18.039Z,100917
2018-03-27T12:54:01.264Z,100918
2018-03-27T12:55:45.205Z,100906
2018-03-27T12:57:29.133Z,100911
2018-03-27T12:59:12.283Z,100914
2018-03-27T13:00:56.196Z,100900
2018-03-27T13:02:39.333Z,100905
2018-03-27T13:04:23.265Z,100898
2018-03-27T13:06:07.184Z,100898
2018-03-27T13:07:50.421Z,100898
2018-03-27T13:09:34.294Z,100898
2018-03-27T13:11:17.443Z,100896
2018-03-27T13:13:00.586Z,100898
2018-03-27T13:14:44.503Z,100897
2018-03-27T13:16:27.660Z,100894
2018-03-27T13:18:10.774Z,100901
2018-03-27T13:19:53.965Z,100899
2018-03-27T13:21:37.895Z,100899
2018-03-27T13:23:21.778Z,100893
2018-03-27T13:25:04.951Z,100899
2018-03-27T13:26:48.849Z,100893
2018-03-27T13:28:32.791Z,100894
2018-03-27T13:30:15.916Z,100881
2018-03-27T13:32:00.565Z,100881
2018-03-27T13:33:43.817Z,100880
2018-03-27T13:35:27.817Z,100877
2018-03-27T13:37:10.950Z,100881
2018-03-27T13:38:54.157Z,100876
2018-03-27T13:40:37.281Z,100876
2018-03-27T13:42:21.899Z,100875
2018-03-27T13:44:05.016Z,100868
2018-03-27T13:45:48.182Z,100863
2018-03-27T13:47:32.067Z,100862
2018-03-27T13:49:15.201Z,100859
2018-03-27T13:50:58.443Z,100860
2018-03-27T13:52:41.651Z,100865
2018-03-27T13:54:25.603Z,100866
2018-03-27T13:56:08.922Z,100855
2018-03-27T13:57:52.793Z,100853
2018-03-27T13:59:35.958Z,100855
2018-03-27T14:01:19.893Z,100862
2018-03-27T14:03:03.027Z,100860
2018-03-27T14:04:46.901Z,100856
2018-03-27T14:06:30.097Z,100859
2018-03-27T14:08:13.288Z,100850
2018-03-27T14:09:56.544Z,100851
2018-03-27T14:11:39.666Z,100835
2018-03-27T14:13:22.853Z,100847
2018-03-27T14:15:06.748Z,100836
2018-03-27T14:16:49.868Z,100832
2018-03-27T14:18:33.020Z,100830
2018-03-27T14:20:16.906Z,100836
2018-03-27T14:22:00.042Z,100832
2018-03-27T14:23:43.269Z,100836
2018-03-27T14:25:27.201Z,100822
2018-03-27T14:27:11.834Z,100830
2018-03-27T14:28:54.996Z,100830
2018-03-27T14:30:38.967Z,100831
2018-03-27T14:32:22.801Z,100828
2018-03-27T14:34:05.960Z,100833
2018-03-27T14:35:49.193Z,100816
2018-03-27T14:37:32.308Z,100825
2018-03-27T14:39:16.299Z,100827
2018-03-27T14:40:59.455Z,100818
2018-03-27T14:42:42.647Z,100822
2018-03-27T14:44:25.779Z,100822
2018-03-27T14:46:09.010Z,100822
2018-03-27T14:47:52.118Z,100823
2018-03-27T14:49:35.247Z,100826
2018-03-27T14:51:19.150Z,100818
2018-03-27T14:53:02.292Z,100811
2018-03-27T14:54:46.179Z,100815
2018-03-27T14:56:29.325Z,100827
2018-03-27T14:58:12.458Z,100809
2018-03-27T14:59:55.584Z,100807
2018-03-27T15:01:39.497Z,100801
2018-03-27T15:03:22.613Z,100794
2018-03-27T15:05:05.754Z,100806
2018-03-27T15:06:48.946Z,100796
2018-03-27T15:08:32.066Z,100799
2018-03-27T15:10:15.180Z,100796
2018-03-27T15:11:58.315Z,100794
2018-03-27T15:13:42.188Z,100798
2018-03-27T15:15:25.373Z,100797
2018-03-27T15:17:08.576Z,100786
2018-03-27T15:18:52.484Z,100797
2018-03-27T15:20:35.614Z,100797
2018-03-27T15:22:18.756Z,100792
2018-03-27T15:24:02.707Z,100785
2018-03-27T15:25:46.582Z,100785
2018-03-27T15:27:29.750Z,100803
2018-03-27T15:29:13.648Z,100786
2018-03-27T15:30:56.760Z,100791
2018-03-27T15:32:39.882Z,100784
2018-03-27T15:34:23.101Z,100786
2018-03-27T15:36:06.271Z,100782
2018-03-27T15:37:49.467Z,100778
2018-03-27T15:39:33.349Z,100776
2018-03-27T15:41:16.468Z,100785
2018-03-27T15:42:59.590Z,100789
2018-03-27T15:44:42.708Z,100765
2018-03-27T15:46:25.868Z,100766
2018-03-27T15:48:09.777Z,100771
2018-03-27T15:49:52.916Z,100784
2018-03-27T15:51:36.039Z,100763
2018-03-27T15:53:20.132Z,100767
2018-03-27T15:55:03.265Z,100765
2018-03-27T15:56:46.503Z,100760
2018-03-27T15:58:29.605Z,100756
2018-03-27T16:00:12.738Z,100752
2018-03-27T16:01:56.689Z,100740
2018-03-27T16:03:40.720Z,100742
2018-03-27T16:05:24.626Z,100744
2018-03-27T16:07:07.877Z,100746
2018-03-27T16:08:51.103Z,100745
2018-03-27T16:10:34.983Z,100749
2018-03-27T16:12:18.143Z,100754
2018-03-27T16:14:02.030Z,100740
2018-03-27T16:15:45.144Z,100743
2018-03-27T16:17:28.298Z,100737
2018-03-27T16:19:12.916Z,100733
2018-03-27T16:20:56.101Z,100738
2018-03-27T16:22:39.293Z,100742
2018-03-27T16:24:23.194Z,100727
2018-03-27T16:26:06.310Z,100732
2018-03-27T16:27:49.536Z,100722
2018-03-27T16:29:32.645Z,100727
2018-03-27T16:31:15.781Z,100732
2018-03-27T16:32:58.922Z,100745
2018-03-27T16:34:42.834Z,100720
2018-03-27T16:36:25.944Z,100729
2018-03-27T16:38:10.585Z,100737
2018-03-27T16:39:53.709Z,100727
2018-03-27T16:41:36.817Z,100729
2018-03-27T16:43:19.970Z,100727
2018-03-27T16:45:03.857Z,100725
2018-03-27T16:46:47.003Z,100727
2018-03-27T16:48:30.219Z,100721
2018-03-27T16:50:13.353Z,100728
2018-03-27T16:51:57.240Z,100726
2018-03-27T16:53:40.361Z,100735
2018-03-27T16:55:23.515Z,100732
2018-03-27T16:57:07.400Z,100727
2018-03-27T16:58:50.549Z,100733
2018-03-27T17:00:33.649Z,100727
2018-03-27T17:02:16.756Z,100731
2018-03-27T17:03:59.890Z,100732
2018-03-27T17:05:43.115Z,100735
2018-03-27T17:07:26.227Z,100730
2018-03-27T17:09:09.463Z,100734
2018-03-27T17:10:52.567Z,100738
2018-03-27T17:12:35.708Z,100733
2018-03-27T17:14:18.849Z,100740
2018-03-27T17:16:02.003Z,100734
2018-03-27T17:17:45.133Z,100736
2018-03-27T17:19:28.360Z,100737
2018-03-27T17:21:11.510Z,100735
2018-03-27T17:22:55.392Z,100731
2018-03-27T17:24:38.643Z,100732
2018-03-27T17:26:22.573Z,100731
2018-03-27T17:28:05.809Z,100733
2018-03-27T17:29:49.712Z,100729
2018-03-27T17:31:32.845Z,100727
2018-03-27T17:33:15.952Z,100578
2018-03-27T17:34:59.169Z,100727
2018-03-27T17:36:42.292Z,100721
2018-03-27T17:38:25.402Z,100725
2018-03-27T17:40:08.742Z,100721
2018-03-27T17:41:52.693Z,100732
2018-03-27T17:43:35.806Z,100726
2018-03-27T17:45:19.831Z,100722
2018-03-27T17:47:03.766Z,100725
2018-03-27T17:48:46.878Z,100722
2018-03-27T17:50:30.004Z,100716
2018-03-27T17:52:13.880Z,100726
2018-03-27T17:53:57.030Z,100722
2018-03-27T17:55:40.157Z,100729
2018-03-27T17:57:23.360Z,100727
2018-03-27T17:59:06.476Z,100722
2018-03-27T18:00:49.645Z,100732
2018-03-27T18:02:32.813Z,100725
2018-03-27T18:04:16.141Z,100729
2018-03-27T18:05:59.381Z,100713
2018-03-27T18:07:43.271Z,100726
2018-03-27T18:09:26.423Z,100717
2018-03-27T18:11:10.325Z,100710
2018-03-27T18:12:53.486Z,100715
2018-03-27T18:14:36.605Z,100719
2018-03-27T18:16:20.505Z,100720
2018-03-27T18:18:03.626Z,100715
2018-03-27T18:19:46.746Z,100712
2018-03-27T18:21:29.860Z,100709
2018-03-27T18:23:13.833Z,100723
2018-03-27T18:24:57.708Z,100723
2018-03-27T18:26:40.831Z,100719
2018-03-27T18:28:23.957Z,100712
2018-03-27T18:30:07.137Z,100720
2018-03-27T18:31:50.256Z,100728
2018-03-27T18:33:33.397Z,100711
2018-03-27T18:35:16.569Z,100710
2018-03-27T18:37:00.460Z,100715
2018-03-27T18:38:43.651Z,100719
2018-03-27T18:40:26.810Z,100712
2018-03-27T18:42:10.717Z,100718
2018-03-27T18:43:53.829Z,100716
2018-03-27T18:45:36.997Z,100719
2018-03-27T18:47:20.891Z,100710
2018-03-27T18:49:03.999Z,100717
2018-03-27T18:50:47.113Z,100721
2018-03-27T18:52:30.252Z,100721
2018-03-27T18:54:13.366Z,100712
2018-03-27T18:55:56.509Z,100716
2018-03-27T18:57:39.636Z,100712
2018-03-27T18:59:23.515Z,100715
2018-03-27T19:01:07.296Z,100709
2018-03-27T19:02:51.169Z,100711
2018-03-27T19:04:34.332Z,100718
2018-03-27T19:06:19.094Z,100717
2018-03-27T19:08:02.207Z,100720
2018-03-27T19:09:45.336Z,100721
2018-03-27T19:11:29.245Z,100714
2018-03-27T19:13:12.413Z,100715
2018-03-27T19:14:55.541Z,100715
2018-03-27T19:16:38.797Z,100721
2018-03-27T19:18:22.033Z,100715
2018-03-27T19:20:05.170Z,100713
2018-03-27T19:21:49.085Z,100713
2018-03-27T19:23:32.207Z,100708
2018-03-27T19:25:16.095Z,100711
2018-03-27T19:26:59.214Z,100712
2018-03-27T19:28:42.375Z,100716
2018-03-27T19:30:26.261Z,100712
2018-03-27T19:32:09.420Z,100715
2018-03-27T19:33:52.543Z,100722
2018-03-27T19:35:36.475Z,100724
2018-03-27T19:37:19.806Z,100728
2018-03-27T19:39:03.694Z,100720
2018-03-27T19:40:46.864Z,100725
2018-03-27T19:42:30.762Z,100732
2018-03-27T19:44:13.877Z,100729
2018-03-27T19:45:57.033Z,100739
2018-03-27T19:47:40.953Z,100726
2018-03-27T19:49:24.861Z,100721
2018-03-27T19:51:08.792Z,100716
2018-03-27T19:52:52.434Z,100720
2018-03-27T19:54:37.102Z,100714
2018-03-27T19:56:20.317Z,100720
2018-03-27T19:58:03.541Z,100720
2018-03-27T19:59:47.131Z,100719
2018-03-27T20:01:30.323Z,100714
2018-03-27T20:03:13.441Z,100716
2018-03-27T20:04:56.578Z,100703
2018-03-27T20:06:39.733Z,100707
2018-03-27T20:08:22.873Z,100700
2018-03-27T20:10:06.078Z,100705
2018-03-27T20:11:50.007Z,100697
2018-03-27T20:13:33.888Z,100694
2018-03-27T20:15:17.080Z,100696
2018-03-27T20:17:00.295Z,100698
2018-03-27T20:18:43.448Z,100709
2018-03-27T20:20:26.548Z,100702
2018-03-27T20:22:09.729Z,100703
2018-03-27T20:23:53.603Z,100701
2018-03-27T20:25:36.780Z,100704
2018-03-27T20:27:19.956Z,100703
2018-03-27T20:29:03.069Z,100694
2018-03-27T20:30:46.189Z,100698
2018-03-27T20:32:29.344Z,100695
2018-03-27T20:34:12.460Z,100690
2018-03-27T20:35:55.587Z,100693
2018-03-27T20:37:39.483Z,100686
2018-03-27T20:39:22.616Z,100683
2018-03-27T20:41:05.855Z,100676
2018-03-27T20:42:50.075Z,100681
2018-03-27T20:44:33.296Z,100677
2018-03-27T20:46:16.413Z,100675
2018-03-27T20:47:59.596Z,100681
2018-03-27T20:49:42.698Z,100669
2018-03-27T20:51:25.858Z,100668
2018-03-27T20:53:08.994Z,100666
2018-03-27T20:54:52.234Z,100669
2018-03-27T20:56:35.352Z,100663
2018-03-27T20:58:18.756Z,100664
2018-03-27T21:00:02.640Z,100655
2018-03-27T21:01:45.753Z,100664
2018-03-27T21:03:28.953Z,100661
2018-03-27T21:05:12.134Z,100666
2018-03-27T21:06:55.368Z,100659
2018-03-27T21:08:39.263Z,100662
2018-03-27T21:10:22.456Z,100661
2018-03-27T21:12:05.575Z,100655
2018-03-27T21:13:48.738Z,100658
2018-03-27T21:15:31.861Z,100651
2018-03-27T21:17:15.069Z,100658
2018-03-27T21:18:58.267Z,100651
2018-03-27T21:20:41.392Z,100652
2018-03-27T21:22:24.526Z,100652
2018-03-27T21:24:07.649Z,100651
2018-03-27T21:25:50.970Z,100653
2018-03-27T21:27:34.138Z,100651
2018-03-27T21:29:17.715Z,100656
2018-03-27T21:31:01.617Z,100645
2018-03-27T21:32:45.352Z,100650
2018-03-27T21:34:28.600Z,100649
2018-03-27T21:36:11.719Z,100639